sensor_id;sensor_type;location;lat;lon;timestamp;temperature;humidity
17659;DHT22;8948;51.534;8.262;2023-12-22T00:03:04;6.30;70.30
17659;DHT22;8948;51.534;8.262;2023-12-22T00:08:05;6.40;70.60
17659;DHT22;8948;51.534;8.262;2023-12-22T00:13:06;6.40;71.20
17659;DHT22;8948;51.534;8.262;2023-12-22T00:18:06;6.30;71.40
17659;DHT22;8948;51.534;8.262;2023-12-22T00:23:07;6.30;71.30
17659;DHT22;8948;51.534;8.262;2023-12-22T00:28:08;6.20;71.20
17659;DHT22;8948;51.534;8.262;2023-12-22T00:33:09;6.20;71.60
17659;DHT22;8948;51.534;8.262;2023-12-22T00:38:09;6.20;71.80
17659;DHT22;8948;51.534;8.262;2023-12-22T00:43:10;6.10;71.80
17659;DHT22;8948;51.534;8.262;2023-12-22T00:48:11;6.20;71.40
17659;DHT22;8948;51.534;8.262;2023-12-22T00:53:11;6.10;71.70
17659;DHT22;8948;51.534;8.262;2023-12-22T00:58:12;6.10;72.20
17659;DHT22;8948;51.534;8.262;2023-12-22T01:03:13;6.00;72.20
17659;DHT22;8948;51.534;8.262;2023-12-22T01:08:13;6.00;72.10
17659;DHT22;8948;51.534;8.262;2023-12-22T01:13:14;5.90;72.50
17659;DHT22;8948;51.534;8.262;2023-12-22T01:18:15;5.80;72.70
17659;DHT22;8948;51.534;8.262;2023-12-22T01:23:16;5.90;73.10
17659;DHT22;8948;51.534;8.262;2023-12-22T01:28:16;5.80;73.20
17659;DHT22;8948;51.534;8.262;2023-12-22T01:33:17;5.70;73.00
17659;DHT22;8948;51.534;8.262;2023-12-22T01:38:17;5.70;72.60
17659;DHT22;8948;51.534;8.262;2023-12-22T01:43:18;5.70;72.40
17659;DHT22;8948;51.534;8.262;2023-12-22T01:48:22;5.70;72.50
17659;DHT22;8948;51.534;8.262;2023-12-22T01:53:24;5.70;72.50
17659;DHT22;8948;51.534;8.262;2023-12-22T01:58:26;5.80;72.50
17659;DHT22;8948;51.534;8.262;2023-12-22T02:03:27;5.80;72.30
17659;DHT22;8948;51.534;8.262;2023-12-22T02:08:31;5.80;72.60
17659;DHT22;8948;51.534;8.262;2023-12-22T02:13:32;5.80;72.70
17659;DHT22;8948;51.534;8.262;2023-12-22T02:18:35;5.80;73.00
17659;DHT22;8948;51.534;8.262;2023-12-22T02:23:39;5.90;72.80
17659;DHT22;8948;51.534;8.262;2023-12-22T02:28:40;5.80;73.20
17659;DHT22;8948;51.534;8.262;2023-12-22T02:33:41;5.90;73.10
17659;DHT22;8948;51.534;8.262;2023-12-22T02:38:43;5.90;72.70
17659;DHT22;8948;51.534;8.262;2023-12-22T02:43:45;5.80;72.60
17659;DHT22;8948;51.534;8.262;2023-12-22T02:48:46;5.90;72.70
17659;DHT22;8948;51.534;8.262;2023-12-22T02:53:47;5.90;72.80
17659;DHT22;8948;51.534;8.262;2023-12-22T02:58:47;5.80;72.00
17659;DHT22;8948;51.534;8.262;2023-12-22T03:03:48;5.80;71.90
17659;DHT22;8948;51.534;8.262;2023-12-22T03:08:48;5.90;71.80
17659;DHT22;8948;51.534;8.262;2023-12-22T03:13:49;5.80;72.10
17659;DHT22;8948;51.534;8.262;2023-12-22T03:18:49;5.80;72.40
17659;DHT22;8948;51.534;8.262;2023-12-22T03:23:50;5.90;72.90
17659;DHT22;8948;51.534;8.262;2023-12-22T03:28:50;5.80;73.30
17659;DHT22;8948;51.534;8.262;2023-12-22T03:33:51;5.90;73.30
17659;DHT22;8948;51.534;8.262;2023-12-22T03:38:51;5.80;72.90
17659;DHT22;8948;51.534;8.262;2023-12-22T03:43:52;5.80;73.80
17659;DHT22;8948;51.534;8.262;2023-12-22T03:48:53;5.70;75.50
17659;DHT22;8948;51.534;8.262;2023-12-22T03:53:53;5.50;75.20
17659;DHT22;8948;51.534;8.262;2023-12-22T03:58:55;5.40;72.60
17659;DHT22;8948;51.534;8.262;2023-12-22T04:03:55;5.30;72.50
17659;DHT22;8948;51.534;8.262;2023-12-22T04:08:56;5.10;74.40
17659;DHT22;8948;51.534;8.262;2023-12-22T04:13:56;5.10;75.10
17659;DHT22;8948;51.534;8.262;2023-12-22T04:18:57;5.00;76.20
17659;DHT22;8948;51.534;8.262;2023-12-22T04:23:57;5.10;76.60
17659;DHT22;8948;51.534;8.262;2023-12-22T04:28:58;5.20;76.40
17659;DHT22;8948;51.534;8.262;2023-12-22T04:33:59;5.30;76.20
17659;DHT22;8948;51.534;8.262;2023-12-22T04:38:59;5.30;75.50
17659;DHT22;8948;51.534;8.262;2023-12-22T04:44:00;5.40;75.00
17659;DHT22;8948;51.534;8.262;2023-12-22T04:49:03;5.40;74.30
17659;DHT22;8948;51.534;8.262;2023-12-22T04:54:04;5.40;73.60
17659;DHT22;8948;51.534;8.262;2023-12-22T04:59:04;5.40;73.30
17659;DHT22;8948;51.534;8.262;2023-12-22T05:04:05;5.50;73.20
17659;DHT22;8948;51.534;8.262;2023-12-22T05:09:06;5.40;73.50
17659;DHT22;8948;51.534;8.262;2023-12-22T05:14:06;5.30;74.20
17659;DHT22;8948;51.534;8.262;2023-12-22T05:19:07;5.30;74.10
17659;DHT22;8948;51.534;8.262;2023-12-22T05:24:07;5.30;74.10
17659;DHT22;8948;51.534;8.262;2023-12-22T05:29:08;5.30;73.60
17659;DHT22;8948;51.534;8.262;2023-12-22T05:34:09;5.40;73.60
17659;DHT22;8948;51.534;8.262;2023-12-22T05:39:10;5.40;73.60
17659;DHT22;8948;51.534;8.262;2023-12-22T05:44:11;5.30;74.40
17659;DHT22;8948;51.534;8.262;2023-12-22T05:49:12;5.40;74.90
17659;DHT22;8948;51.534;8.262;2023-12-22T05:54:12;5.30;75.40
17659;DHT22;8948;51.534;8.262;2023-12-22T05:59:13;5.30;75.90
17659;DHT22;8948;51.534;8.262;2023-12-22T06:04:14;5.30;76.10
17659;DHT22;8948;51.534;8.262;2023-12-22T06:09:14;5.30;75.90
17659;DHT22;8948;51.534;8.262;2023-12-22T06:14:16;5.40;75.20
17659;DHT22;8948;51.534;8.262;2023-12-22T06:19:16;5.40;75.40
17659;DHT22;8948;51.534;8.262;2023-12-22T06:24:17;5.40;75.30
17659;DHT22;8948;51.534;8.262;2023-12-22T06:29:17;5.40;74.60
17659;DHT22;8948;51.534;8.262;2023-12-22T06:34:18;5.60;74.70
17659;DHT22;8948;51.534;8.262;2023-12-22T06:39:19;5.70;73.90
17659;DHT22;8948;51.534;8.262;2023-12-22T06:44:20;5.60;74.10
17659;DHT22;8948;51.534;8.262;2023-12-22T06:49:21;5.60;74.00
17659;DHT22;8948;51.534;8.262;2023-12-22T06:54:21;5.60;73.70
17659;DHT22;8948;51.534;8.262;2023-12-22T06:59:22;5.60;73.20
17659;DHT22;8948;51.534;8.262;2023-12-22T07:15:17;5.70;72.60
17659;DHT22;8948;51.534;8.262;2023-12-22T07:20:18;5.80;72.70
17659;DHT22;8948;51.534;8.262;2023-12-22T07:25:18;5.80;72.50
17659;DHT22;8948;51.534;8.262;2023-12-22T07:30:20;5.80;72.90
17659;DHT22;8948;51.534;8.262;2023-12-22T07:35:20;5.80;72.50
17659;DHT22;8948;51.534;8.262;2023-12-22T07:40:21;5.80;72.80
17659;DHT22;8948;51.534;8.262;2023-12-22T07:45:21;5.80;72.80
17659;DHT22;8948;51.534;8.262;2023-12-22T07:50:22;5.90;73.30
17659;DHT22;8948;51.534;8.262;2023-12-22T07:55:23;5.90;73.80
17659;DHT22;8948;51.534;8.262;2023-12-22T08:00:23;5.90;74.30
17659;DHT22;8948;51.534;8.262;2023-12-22T08:05:24;6.00;74.90
17659;DHT22;8948;51.534;8.262;2023-12-22T08:10:25;6.00;75.40
17659;DHT22;8948;51.534;8.262;2023-12-22T08:15:27;5.80;76.70
17659;DHT22;8948;51.534;8.262;2023-12-22T08:20:28;5.70;78.00
17659;DHT22;8948;51.534;8.262;2023-12-22T08:25:29;5.60;77.60
17659;DHT22;8948;51.534;8.262;2023-12-22T08:30:29;5.50;78.40
17659;DHT22;8948;51.534;8.262;2023-12-22T08:35:30;5.50;79.50
17659;DHT22;8948;51.534;8.262;2023-12-22T08:40:31;5.50;80.00
17659;DHT22;8948;51.534;8.262;2023-12-22T08:45:31;5.60;80.60
17659;DHT22;8948;51.534;8.262;2023-12-22T08:50:32;5.50;81.20
17659;DHT22;8948;51.534;8.262;2023-12-22T08:55:32;5.50;81.20
17659;DHT22;8948;51.534;8.262;2023-12-22T09:00:33;5.50;81.80
17659;DHT22;8948;51.534;8.262;2023-12-22T09:05:33;5.50;81.60
17659;DHT22;8948;51.534;8.262;2023-12-22T09:10:34;5.50;82.40
17659;DHT22;8948;51.534;8.262;2023-12-22T09:15:35;5.60;81.90
17659;DHT22;8948;51.534;8.262;2023-12-22T09:20:36;5.70;81.90
17659;DHT22;8948;51.534;8.262;2023-12-22T09:25:37;5.70;81.70
17659;DHT22;8948;51.534;8.262;2023-12-22T09:30:37;5.70;81.20
17659;DHT22;8948;51.534;8.262;2023-12-22T09:35:38;5.60;80.70
17659;DHT22;8948;51.534;8.262;2023-12-22T09:40:42;5.70;80.50
17659;DHT22;8948;51.534;8.262;2023-12-22T09:45:42;5.60;80.80
17659;DHT22;8948;51.534;8.262;2023-12-22T09:50:44;5.70;80.80
17659;DHT22;8948;51.534;8.262;2023-12-22T09:55:46;5.70;81.10
17659;DHT22;8948;51.534;8.262;2023-12-22T10:00:47;5.70;81.20
17659;DHT22;8948;51.534;8.262;2023-12-22T10:05:48;5.70;80.50
17659;DHT22;8948;51.534;8.262;2023-12-22T10:10:49;5.80;81.00
17659;DHT22;8948;51.534;8.262;2023-12-22T10:15:53;5.80;79.40
17659;DHT22;8948;51.534;8.262;2023-12-22T10:20:56;5.70;80.10
17659;DHT22;8948;51.534;8.262;2023-12-22T10:25:57;5.60;80.30
17659;DHT22;8948;51.534;8.262;2023-12-22T10:30:58;5.60;80.60
17659;DHT22;8948;51.534;8.262;2023-12-22T10:36:07;5.60;81.00
17659;DHT22;8948;51.534;8.262;2023-12-22T10:41:08;5.70;81.10
17659;DHT22;8948;51.534;8.262;2023-12-22T10:46:09;5.70;81.00
17659;DHT22;8948;51.534;8.262;2023-12-22T10:51:11;5.60;80.60
17659;DHT22;8948;51.534;8.262;2023-12-22T10:56:11;5.60;80.90
17659;DHT22;8948;51.534;8.262;2023-12-22T11:01:14;5.70;81.00
17659;DHT22;8948;51.534;8.262;2023-12-22T11:06:16;5.60;81.70
17659;DHT22;8948;51.534;8.262;2023-12-22T11:11:25;5.60;82.60
17659;DHT22;8948;51.534;8.262;2023-12-22T11:16:30;5.70;82.80
17659;DHT22;8948;51.534;8.262;2023-12-22T11:21:31;5.80;82.00
17659;DHT22;8948;51.534;8.262;2023-12-22T11:26:32;5.90;82.90
17659;DHT22;8948;51.534;8.262;2023-12-22T11:31:33;5.90;82.80
17659;DHT22;8948;51.534;8.262;2023-12-22T11:36:35;6.00;83.20
17659;DHT22;8948;51.534;8.262;2023-12-22T11:41:39;6.10;83.00
17659;DHT22;8948;51.534;8.262;2023-12-22T11:46:40;6.10;83.50
17659;DHT22;8948;51.534;8.262;2023-12-22T11:51:41;6.20;83.60
17659;DHT22;8948;51.534;8.262;2023-12-22T11:56:41;6.20;83.80
17659;DHT22;8948;51.534;8.262;2023-12-22T12:01:42;6.20;83.70
17659;DHT22;8948;51.534;8.262;2023-12-22T12:06:43;6.20;83.90
17659;DHT22;8948;51.534;8.262;2023-12-22T12:17:05;6.40;83.50
17659;DHT22;8948;51.534;8.262;2023-12-22T12:22:08;6.40;84.10
17659;DHT22;8948;51.534;8.262;2023-12-22T12:27:09;6.40;83.80
17659;DHT22;8948;51.534;8.262;2023-12-22T12:32:14;6.40;84.20
17659;DHT22;8948;51.534;8.262;2023-12-22T12:37:14;6.50;84.00
17659;DHT22;8948;51.534;8.262;2023-12-22T12:42:16;6.60;84.50
17659;DHT22;8948;51.534;8.262;2023-12-22T12:47:17;6.70;83.50
17659;DHT22;8948;51.534;8.262;2023-12-22T12:52:17;6.60;83.70
17659;DHT22;8948;51.534;8.262;2023-12-22T12:57:19;6.70;84.30
17659;DHT22;8948;51.534;8.262;2023-12-22T13:02:20;6.70;84.40
17659;DHT22;8948;51.534;8.262;2023-12-22T13:07:25;6.70;84.10
17659;DHT22;8948;51.534;8.262;2023-12-22T13:12:26;6.70;83.80
17659;DHT22;8948;51.534;8.262;2023-12-22T13:17:27;6.70;83.50
17659;DHT22;8948;51.534;8.262;2023-12-22T13:22:27;6.60;83.10
17659;DHT22;8948;51.534;8.262;2023-12-22T13:27:28;6.60;83.40
17659;DHT22;8948;51.534;8.262;2023-12-22T13:32:29;6.60;82.90
17659;DHT22;8948;51.534;8.262;2023-12-22T13:37:29;6.60;82.50
17659;DHT22;8948;51.534;8.262;2023-12-22T13:42:31;6.60;82.10
17659;DHT22;8948;51.534;8.262;2023-12-22T13:47:31;6.60;82.50
17659;DHT22;8948;51.534;8.262;2023-12-22T13:52:32;6.60;82.20
17659;DHT22;8948;51.534;8.262;2023-12-22T13:57:35;6.60;81.90
17659;DHT22;8948;51.534;8.262;2023-12-22T14:02:35;6.70;82.30
17659;DHT22;8948;51.534;8.262;2023-12-22T14:07:36;6.70;82.50
17659;DHT22;8948;51.534;8.262;2023-12-22T14:12:38;6.80;82.70
17659;DHT22;8948;51.534;8.262;2023-12-22T14:17:39;6.80;82.80
17659;DHT22;8948;51.534;8.262;2023-12-22T14:22:42;6.80;83.10
17659;DHT22;8948;51.534;8.262;2023-12-22T14:27:42;6.90;83.10
17659;DHT22;8948;51.534;8.262;2023-12-22T14:32:43;7.00;84.70
17659;DHT22;8948;51.534;8.262;2023-12-22T14:37:43;7.10;84.80
17659;DHT22;8948;51.534;8.262;2023-12-22T14:42:45;7.10;84.60
17659;DHT22;8948;51.534;8.262;2023-12-22T14:47:46;7.20;83.80
17659;DHT22;8948;51.534;8.262;2023-12-22T14:52:47;7.20;83.40
17659;DHT22;8948;51.534;8.262;2023-12-22T14:57:48;7.30;83.50
17659;DHT22;8948;51.534;8.262;2023-12-22T15:02:49;7.30;81.10
17659;DHT22;8948;51.534;8.262;2023-12-22T15:07:49;7.10;81.60
17659;DHT22;8948;51.534;8.262;2023-12-22T15:12:50;7.20;82.60
17659;DHT22;8948;51.534;8.262;2023-12-22T15:17:51;7.10;83.50
17659;DHT22;8948;51.534;8.262;2023-12-22T15:22:51;7.10;84.30
17659;DHT22;8948;51.534;8.262;2023-12-22T15:27:52;7.10;84.30
17659;DHT22;8948;51.534;8.262;2023-12-22T15:32:52;7.10;84.20
17659;DHT22;8948;51.534;8.262;2023-12-22T15:37:53;7.20;83.30
17659;DHT22;8948;51.534;8.262;2023-12-22T15:42:53;7.20;83.60
17659;DHT22;8948;51.534;8.262;2023-12-22T15:47:54;7.20;83.90
17659;DHT22;8948;51.534;8.262;2023-12-22T15:52:55;7.30;84.10
17659;DHT22;8948;51.534;8.262;2023-12-22T15:57:55;7.30;84.80
17659;DHT22;8948;51.534;8.262;2023-12-22T16:02:56;7.30;81.60
17659;DHT22;8948;51.534;8.262;2023-12-22T16:07:56;7.10;82.40
17659;DHT22;8948;51.534;8.262;2023-12-22T16:13:02;7.20;83.00
17659;DHT22;8948;51.534;8.262;2023-12-22T16:18:03;7.10;83.70
17659;DHT22;8948;51.534;8.262;2023-12-22T16:23:04;7.20;85.30
17659;DHT22;8948;51.534;8.262;2023-12-22T16:28:05;7.50;84.70
17659;DHT22;8948;51.534;8.262;2023-12-22T16:33:06;7.70;84.50
17659;DHT22;8948;51.534;8.262;2023-12-22T16:38:06;7.80;83.90
17659;DHT22;8948;51.534;8.262;2023-12-22T16:43:07;7.90;83.80
17659;DHT22;8948;51.534;8.262;2023-12-22T16:48:07;8.00;84.10
17659;DHT22;8948;51.534;8.262;2023-12-22T16:53:08;7.90;84.60
17659;DHT22;8948;51.534;8.262;2023-12-22T16:58:09;7.80;81.50
17659;DHT22;8948;51.534;8.262;2023-12-22T17:03:09;7.60;79.30
17659;DHT22;8948;51.534;8.262;2023-12-22T17:08:10;7.30;79.70
17659;DHT22;8948;51.534;8.262;2023-12-22T17:13:10;7.20;80.20
17659;DHT22;8948;51.534;8.262;2023-12-22T17:18:11;7.10;80.90
17659;DHT22;8948;51.534;8.262;2023-12-22T17:23:12;6.90;81.30
17659;DHT22;8948;51.534;8.262;2023-12-22T17:28:12;6.90;81.00
17659;DHT22;8948;51.534;8.262;2023-12-22T17:33:13;6.90;81.50
17659;DHT22;8948;51.534;8.262;2023-12-22T17:38:13;6.80;81.20
17659;DHT22;8948;51.534;8.262;2023-12-22T17:43:14;6.80;81.10
17659;DHT22;8948;51.534;8.262;2023-12-22T17:48:15;6.80;81.50
17659;DHT22;8948;51.534;8.262;2023-12-22T17:53:16;6.80;81.50
17659;DHT22;8948;51.534;8.262;2023-12-22T17:58:16;6.80;82.00
17659;DHT22;8948;51.534;8.262;2023-12-22T18:03:18;6.80;81.90
17659;DHT22;8948;51.534;8.262;2023-12-22T18:08:19;6.90;81.70
17659;DHT22;8948;51.534;8.262;2023-12-22T18:13:20;7.00;81.50
17659;DHT22;8948;51.534;8.262;2023-12-22T18:18:20;7.00;81.00
17659;DHT22;8948;51.534;8.262;2023-12-22T18:23:21;7.10;80.40
17659;DHT22;8948;51.534;8.262;2023-12-22T18:28:21;7.10;79.80
17659;DHT22;8948;51.534;8.262;2023-12-22T18:33:24;7.20;80.00
17659;DHT22;8948;51.534;8.262;2023-12-22T18:38:26;7.20;79.80
17659;DHT22;8948;51.534;8.262;2023-12-22T18:43:27;7.20;79.40
17659;DHT22;8948;51.534;8.262;2023-12-22T18:48:28;7.20;79.40
17659;DHT22;8948;51.534;8.262;2023-12-22T18:53:28;7.20;79.90
17659;DHT22;8948;51.534;8.262;2023-12-22T18:58:29;7.20;80.10
17659;DHT22;8948;51.534;8.262;2023-12-22T19:03:30;7.20;80.10
17659;DHT22;8948;51.534;8.262;2023-12-22T19:08:30;7.20;80.10
17659;DHT22;8948;51.534;8.262;2023-12-22T19:13:31;7.20;80.10
17659;DHT22;8948;51.534;8.262;2023-12-22T19:18:32;7.20;79.40
17659;DHT22;8948;51.534;8.262;2023-12-22T19:23:33;7.20;77.70
17659;DHT22;8948;51.534;8.262;2023-12-22T19:28:33;7.20;77.50
17659;DHT22;8948;51.534;8.262;2023-12-22T19:33:34;7.30;77.50
17659;DHT22;8948;51.534;8.262;2023-12-22T19:38:34;7.20;77.80
17659;DHT22;8948;51.534;8.262;2023-12-22T19:43:35;7.20;77.70
17659;DHT22;8948;51.534;8.262;2023-12-22T19:48:36;7.20;78.10
17659;DHT22;8948;51.534;8.262;2023-12-22T19:53:36;7.20;78.00
17659;DHT22;8948;51.534;8.262;2023-12-22T19:58:37;7.20;78.50
17659;DHT22;8948;51.534;8.262;2023-12-22T20:03:37;7.10;78.70
17659;DHT22;8948;51.534;8.262;2023-12-22T20:08:38;7.10;77.40
17659;DHT22;8948;51.534;8.262;2023-12-22T20:13:38;7.00;77.80
17659;DHT22;8948;51.534;8.262;2023-12-22T20:18:39;7.00;77.40
17659;DHT22;8948;51.534;8.262;2023-12-22T20:23:40;7.00;77.10
17659;DHT22;8948;51.534;8.262;2023-12-22T20:28:40;7.00;76.70
17659;DHT22;8948;51.534;8.262;2023-12-22T20:33:41;7.00;77.10
17659;DHT22;8948;51.534;8.262;2023-12-22T20:38:41;7.00;77.20
17659;DHT22;8948;51.534;8.262;2023-12-22T20:43:42;7.00;77.70
17659;DHT22;8948;51.534;8.262;2023-12-22T20:48:42;6.90;78.10
17659;DHT22;8948;51.534;8.262;2023-12-22T20:53:43;6.90;78.80
17659;DHT22;8948;51.534;8.262;2023-12-22T20:58:43;6.90;79.10
17659;DHT22;8948;51.534;8.262;2023-12-22T21:03:44;6.90;79.50
17659;DHT22;8948;51.534;8.262;2023-12-22T21:08:45;6.90;79.90
17659;DHT22;8948;51.534;8.262;2023-12-22T21:13:46;6.90;80.10
17659;DHT22;8948;51.534;8.262;2023-12-22T21:18:48;6.80;80.00
17659;DHT22;8948;51.534;8.262;2023-12-22T21:23:48;6.70;79.60
17659;DHT22;8948;51.534;8.262;2023-12-22T21:28:49;6.80;79.50
17659;DHT22;8948;51.534;8.262;2023-12-22T21:33:49;6.80;79.50
17659;DHT22;8948;51.534;8.262;2023-12-22T21:38:51;6.80;79.00
17659;DHT22;8948;51.534;8.262;2023-12-22T21:43:51;6.80;78.70
17659;DHT22;8948;51.534;8.262;2023-12-22T21:48:52;6.70;78.80
17659;DHT22;8948;51.534;8.262;2023-12-22T21:53:52;6.80;78.10
17659;DHT22;8948;51.534;8.262;2023-12-22T21:58:53;6.70;77.90
17659;DHT22;8948;51.534;8.262;2023-12-22T22:03:54;6.70;77.90
17659;DHT22;8948;51.534;8.262;2023-12-22T22:08:55;6.60;77.90
17659;DHT22;8948;51.534;8.262;2023-12-22T22:13:55;6.60;77.70
17659;DHT22;8948;51.534;8.262;2023-12-22T22:18:56;6.70;77.00
17659;DHT22;8948;51.534;8.262;2023-12-22T22:23:57;6.60;77.90
17659;DHT22;8948;51.534;8.262;2023-12-22T22:28:57;6.60;78.20
17659;DHT22;8948;51.534;8.262;2023-12-22T22:33:59;6.70;78.40
17659;DHT22;8948;51.534;8.262;2023-12-22T22:39:00;6.70;78.50
17659;DHT22;8948;51.534;8.262;2023-12-22T22:44:01;6.70;78.20
17659;DHT22;8948;51.534;8.262;2023-12-22T22:49:02;6.70;78.10
17659;DHT22;8948;51.534;8.262;2023-12-22T22:54:03;6.60;78.10
17659;DHT22;8948;51.534;8.262;2023-12-22T22:59:05;6.60;77.80
17659;DHT22;8948;51.534;8.262;2023-12-22T23:04:05;6.60;77.80
17659;DHT22;8948;51.534;8.262;2023-12-22T23:09:06;6.60;77.70
17659;DHT22;8948;51.534;8.262;2023-12-22T23:14:07;6.70;77.80
17659;DHT22;8948;51.534;8.262;2023-12-22T23:19:07;6.60;77.70
17659;DHT22;8948;51.534;8.262;2023-12-22T23:24:08;6.60;77.90
17659;DHT22;8948;51.534;8.262;2023-12-22T23:29:08;6.70;77.60
17659;DHT22;8948;51.534;8.262;2023-12-22T23:34:09;6.60;77.60
17659;DHT22;8948;51.534;8.262;2023-12-22T23:39:10;6.70;77.50
17659;DHT22;8948;51.534;8.262;2023-12-22T23:44:10;6.60;76.80
17659;DHT22;8948;51.534;8.262;2023-12-22T23:49:11;6.60;76.90
17659;DHT22;8948;51.534;8.262;2023-12-22T23:54:11;6.60;76.40
17659;DHT22;8948;51.534;8.262;2023-12-22T23:59:12;6.50;76.70
